Time;durP1;ratioP1;P1;durP2;ratioP2;P2;SDS_P1;SDS_P2;PMS_P1;PMS_P2;Temp;Humidity;BMP_temperature;BMP_pressure;BME280_temperature;BME280_humidity;BME280_pressure;Samples;Min_cycle;Max_cycle;Signal;HPM_P1;HPM_P2
2023/08/10 00:01:36;;;;;;;6.43;2.95;;;;;;;13.88;100.00;101924.31;5032357;28;20099;-59
2023/08/10 00:04:07;;;;;;;7.80;2.83;;;;;;;13.86;100.00;101927.06;5033430;28;20069;-59
2023/08/10 00:06:40;;;;;;;10.63;3.15;;;;;;;13.85;100.00;101922.72;5032624;28;20429;-59
2023/08/10 00:09:13;;;;;;;8.23;3.13;;;;;;;13.86;100.00;101919.13;5029208;28;20045;-59
2023/08/10 00:11:43;;;;;;;6.60;2.85;;;;;;;13.82;100.00;101914.94;5031787;28;20124;-59
2023/08/10 00:14:11;;;;;;;6.90;2.25;;;;;;;13.89;100.00;101914.59;5033234;28;20052;-59
2023/08/10 00:16:39;;;;;;;10.10;3.10;;;;;;;14.02;100.00;101926.09;5029786;28;20053;-59
2023/08/10 00:19:08;;;;;;;6.30;2.88;;;;;;;13.94;100.00;101931.84;5028569;28;20136;-59
2023/08/10 00:21:36;;;;;;;7.68;2.80;;;;;;;13.96;100.00;101926.47;5029543;28;20763;-59
2023/08/10 00:24:06;;;;;;;8.50;3.03;;;;;;;14.01;100.00;101927.88;5031594;28;20037;-59
2023/08/10 00:26:34;;;;;;;9.18;3.05;;;;;;;13.99;100.00;101929.78;5048068;28;20057;-59
2023/08/10 00:29:03;;;;;;;6.50;2.72;;;;;;;13.93;100.00;101929.31;5031950;28;20049;-58
2023/08/10 00:31:31;;;;;;;6.03;2.65;;;;;;;13.99;100.00;101932.44;5031757;28;20408;-59
2023/08/10 00:33:59;;;;;;;6.57;2.90;;;;;;;14.00;100.00;101928.84;5029087;28;20061;-59
2023/08/10 00:36:30;;;;;;;7.95;2.65;;;;;;;14.02;100.00;101926.94;5027990;28;20053;-59
2023/08/10 00:38:58;;;;;;;8.57;3.00;;;;;;;13.99;100.00;101931.59;5031318;28;20048;-59
2023/08/10 00:41:28;;;;;;;6.93;2.83;;;;;;;14.09;100.00;101927.41;5032775;28;20099;-56
2023/08/10 00:43:56;;;;;;;6.13;2.67;;;;;;;14.01;100.00;101922.59;5029261;28;20049;-56
2023/08/10 00:46:24;;;;;;;8.07;2.58;;;;;;;14.07;100.00;101924.03;5029497;28;20057;-56
2023/08/10 00:48:53;;;;;;;6.88;2.58;;;;;;;14.10;100.00;101925.63;5029056;28;20042;-56
2023/08/10 00:51:21;;;;;;;7.00;2.55;;;;;;;14.15;100.00;101939.38;5029220;28;20041;-56
2023/08/10 00:53:50;;;;;;;7.22;2.75;;;;;;;14.10;100.00;101942.34;5028021;28;20049;-56
2023/08/10 00:56:18;;;;;;;8.05;2.50;;;;;;;14.14;100.00;101937.72;5029484;28;20099;-56
2023/08/10 00:58:48;;;;;;;8.35;2.72;;;;;;;14.09;100.00;101935.34;5030198;28;20416;-55
2023/08/10 01:01:16;;;;;;;7.88;2.80;;;;;;;14.13;100.00;101936.84;5032696;28;20054;-59
2023/08/10 01:03:48;;;;;;;8.40;2.95;;;;;;;14.12;100.00;101932.50;5032652;28;20049;-59
2023/08/10 01:06:24;;;;;;;7.10;2.72;;;;;;;14.08;100.00;101933.63;5032564;28;20405;-59
2023/08/10 01:09:09;;;;;;;8.77;2.92;;;;;;;14.13;100.00;101936.84;5027598;28;20049;-59
2023/08/10 01:11:40;;;;;;;8.55;3.00;;;;;;;14.20;100.00;101939.97;5028465;28;20107;-59
2023/08/10 01:14:17;;;;;;;6.82;2.90;;;;;;;14.25;100.00;101943.16;5028889;28;20049;-59
2023/08/10 01:16:48;;;;;;;8.48;2.70;;;;;;;14.28;100.00;101936.84;5029190;28;20124;-59
2023/08/10 01:19:26;;;;;;;7.82;2.80;;;;;;;14.28;100.00;101940.31;5031905;28;20061;-58
2023/08/10 01:22:02;;;;;;;6.60;2.60;;;;;;;14.24;100.00;101943.28;5032048;28;20564;-56
2023/08/10 01:24:33;;;;;;;7.10;2.53;;;;;;;14.24;100.00;101944.09;5031621;28;20447;-55
2023/08/10 01:27:04;;;;;;;7.70;3.13;;;;;;;14.20;100.00;101953.19;5031709;28;20120;-55
2023/08/10 01:29:32;;;;;;;7.20;2.40;;;;;;;14.28;100.00;101956.19;5031828;28;20079;-56
2023/08/10 01:32:03;;;;;;;7.00;2.55;;;;;;;14.26;100.00;101950.16;5030955;28;20065;-56
2023/08/10 01:34:32;;;;;;;9.45;2.70;;;;;;;14.18;100.00;101948.00;5028050;28;20045;-56
2023/08/10 01:37:00;;;;;;;7.88;2.53;;;;;;;14.24;100.00;101957.34;5030159;28;20053;-56
2023/08/10 01:39:28;;;;;;;10.40;2.63;;;;;;;14.27;100.00;101954.50;5028236;28;20076;-56
2023/08/10 01:41:56;;;;;;;5.90;2.47;;;;;;;14.34;100.00;101957.59;5027634;28;20520;-56
2023/08/10 01:44:25;;;;;;;4.72;2.10;;;;;;;14.23;100.00;101949.50;5028844;28;20409;-56
2023/08/10 01:47:01;;;;;;;6.35;2.30;;;;;;;14.21;100.00;101954.91;5030406;28;20521;-56
2023/08/10 01:49:34;;;;;;;5.63;2.20;;;;;;;14.26;100.00;101952.81;5028122;28;20057;-56
2023/08/10 01:52:08;;;;;;;7.78;2.70;;;;;;;14.32;100.00;101954.22;5030791;28;20045;-56
2023/08/10 01:54:38;;;;;;;6.95;2.45;;;;;;;14.34;100.00;101961.13;5031228;28;20057;-56
2023/08/10 01:57:06;;;;;;;8.68;2.63;;;;;;;14.34;100.00;101969.06;5031455;28;20045;-55
2023/08/10 01:59:36;;;;;;;10.98;3.00;;;;;;;14.30;100.00;101956.97;5031468;28;20042;-56
2023/08/10 02:02:04;;;;;;;5.45;2.63;;;;;;;14.27;100.00;101957.13;5031380;28;20105;-56
2023/08/10 02:04:33;;;;;;;7.95;2.50;;;;;;;14.27;100.00;101959.78;5029006;28;20052;-56
2023/08/10 02:07:01;;;;;;;5.82;2.50;;;;;;;14.29;100.00;101957.91;5028442;28;20077;-56
2023/08/10 02:09:29;;;;;;;8.35;2.63;;;;;;;14.32;100.00;101959.50;5026902;28;20045;-59
2023/08/10 02:11:57;;;;;;;7.57;2.50;;;;;;;14.26;100.00;101957.25;5029477;28;20054;-60
2023/08/10 02:14:28;;;;;;;9.65;2.97;;;;;;;14.20;100.00;101964.59;5031353;28;20099;-59
2023/08/10 02:16:58;;;;;;;5.10;2.47;;;;;;;14.30;100.00;101962.25;5031388;28;20053;-59
2023/08/10 02:19:28;;;;;;;5.75;2.53;;;;;;;14.35;100.00;101960.16;5031447;28;20477;-59
2023/08/10 02:21:59;;;;;;;5.78;2.58;;;;;;;14.31;100.00;101957.81;5031151;28;20112;-56
2023/08/10 02:24:27;;;;;;;6.38;2.50;;;;;;;14.28;100.00;101956.19;5026284;28;20046;-57
2023/08/10 02:26:55;;;;;;;5.00;2.42;;;;;;;14.24;100.00;101952.03;5027899;28;20095;-56
2023/08/10 02:29:23;;;;;;;7.88;2.55;;;;;;;14.27;100.00;101951.84;5027950;28;20041;-56
2023/08/10 02:31:54;;;;;;;7.38;2.70;;;;;;;14.34;100.00;101947.88;5028263;28;20342;-58
2023/08/10 02:34:24;;;;;;;7.80;2.88;;;;;;;14.26;100.00;101944.00;5027654;28;20076;-59
2023/08/10 02:36:52;;;;;;;5.65;2.80;;;;;;;14.19;100.00;101940.91;5027982;28;20125;-59
2023/08/10 02:39:20;;;;;;;5.50;2.20;;;;;;;14.24;100.00;101952.03;5028896;28;20050;-59
2023/08/10 02:41:48;;;;;;;6.22;3.17;;;;;;;14.23;100.00;101950.34;5031249;28;20068;-59
2023/08/10 02:44:16;;;;;;;5.18;2.63;;;;;;;14.20;100.00;101947.91;5030940;28;20085;-59
2023/08/10 02:46:44;;;;;;;7.47;2.70;;;;;;;14.14;100.00;101950.94;5031365;28;20041;-59
2023/08/10 02:49:12;;;;;;;7.35;2.80;;;;;;;14.20;100.00;101955.84;5030439;28;20056;-59
2023/08/10 02:51:42;;;;;;;5.60;2.50;;;;;;;14.18;100.00;101950.66;5027822;28;20100;-59
2023/08/10 02:54:13;;;;;;;6.53;2.70;;;;;;;14.27;100.00;101945.72;5033313;28;20037;-59
2023/08/10 02:56:41;;;;;;;8.73;2.53;;;;;;;14.24;100.00;101946.75;5034632;28;20057;-59
2023/08/10 02:59:09;;;;;;;9.93;3.25;;;;;;;14.20;100.00;101954.03;5034662;28;20452;-56
2023/08/10 03:01:37;;;;;;;7.13;2.50;;;;;;;14.19;100.00;101959.41;5031503;28;20099;-56
2023/08/10 03:04:06;;;;;;;7.05;2.83;;;;;;;14.22;100.00;101958.38;5030897;28;20061;-56
2023/08/10 03:06:35;;;;;;;7.28;2.90;;;;;;;14.15;100.00;101958.78;5031506;28;20057;-56
2023/08/10 03:09:06;;;;;;;6.72;2.25;;;;;;;14.13;100.00;101957.19;5030282;28;20124;-56
2023/08/10 03:11:35;;;;;;;7.00;2.58;;;;;;;14.16;100.00;101954.31;5030618;28;20050;-56
2023/08/10 03:14:03;;;;;;;6.20;2.47;;;;;;;14.14;100.00;101953.59;5030662;28;20052;-56
2023/08/10 03:16:32;;;;;;;7.60;2.40;;;;;;;14.11;100.00;101951.97;5031016;28;20049;-55
2023/08/10 03:19:01;;;;;;;5.53;2.20;;;;;;;14.11;100.00;101948.47;5030913;28;20057;-56
2023/08/10 03:21:29;;;;;;;7.35;2.33;;;;;;;13.99;100.00;101950.09;5033451;28;20056;-56
2023/08/10 03:23:57;;;;;;;7.50;2.45;;;;;;;13.97;100.00;101952.81;5034045;28;20456;-56
2023/08/10 03:26:26;;;;;;;7.65;2.63;;;;;;;14.01;100.00;101956.97;5034200;28;20042;-56
2023/08/10 03:28:54;;;;;;;5.90;2.38;;;;;;;14.14;100.00;101965.00;5034189;28;20516;-56
2023/08/10 03:31:23;;;;;;;6.43;2.60;;;;;;;14.11;100.00;101954.63;5032832;28;20076;-57
2023/08/10 03:33:51;;;;;;;8.95;2.53;;;;;;;14.20;100.00;101972.53;5031332;28;20053;-56
2023/08/10 03:36:20;;;;;;;6.90;2.75;;;;;;;14.20;100.00;101969.06;5031154;28;20045;-56
2023/08/10 03:38:48;;;;;;;5.18;2.50;;;;;;;14.16;100.00;101964.91;5033201;28;20176;-59
2023/08/10 03:41:16;;;;;;;6.68;2.53;;;;;;;14.12;100.00;101969.53;5032990;28;20505;-59
2023/08/10 03:43:48;;;;;;;9.63;3.08;;;;;;;13.98;100.00;101967.75;5030693;28;20053;-59
2023/08/10 03:46:17;;;;;;;7.22;2.60;;;;;;;13.97;100.00;101960.75;5033395;28;20045;-59
2023/08/10 03:48:48;;;;;;;9.27;3.10;;;;;;;13.97;100.00;101968.69;5033680;28;20049;-57
2023/08/10 03:51:16;;;;;;;7.00;2.53;;;;;;;14.01;100.00;101967.56;5034372;28;20049;-59
2023/08/10 03:53:44;;;;;;;7.68;2.53;;;;;;;14.01;100.00;101964.91;5032069;28;20575;-59
2023/08/10 03:56:12;;;;;;;6.18;2.63;;;;;;;14.06;100.00;101974.34;5029995;28;20492;-60
2023/08/10 03:58:40;;;;;;;8.15;2.80;;;;;;;14.09;100.00;101976.81;5030283;28;20492;-59
2023/08/10 04:01:13;;;;;;;9.50;2.75;;;;;;;14.07;100.00;101970.75;5032492;28;20049;-57
2023/08/10 04:03:41;;;;;;;6.40;2.63;;;;;;;14.06;100.00;101971.69;5028647;28;20053;-59
2023/08/10 04:06:10;;;;;;;7.60;2.63;;;;;;;14.08;100.00;101970.66;5030631;28;20524;-60
2023/08/10 04:08:38;;;;;;;8.85;2.70;;;;;;;14.15;100.00;101979.06;5033392;28;20500;-58
2023/08/10 04:11:06;;;;;;;10.18;3.30;;;;;;;14.08;100.00;101972.47;5033267;28;20045;-57
2023/08/10 04:13:34;;;;;;;7.93;3.17;;;;;;;14.10;100.00;101971.44;5031318;28;20404;-57
2023/08/10 04:16:03;;;;;;;7.95;2.70;;;;;;;14.13;100.00;101967.75;5029971;28;20059;-57
2023/08/10 04:18:33;;;;;;;8.50;3.45;;;;;;;14.14;100.00;101969.47;5032882;28;20137;-56
2023/08/10 04:21:01;;;;;;;8.32;3.42;;;;;;;14.19;100.00;101976.16;5031449;28;20053;-56
2023/08/10 04:23:32;;;;;;;10.27;3.55;;;;;;;14.15;100.00;101984.38;5028740;28;20046;-56
2023/08/10 04:26:00;;;;;;;7.10;3.22;;;;;;;14.14;100.00;101982.69;5029747;28;20045;-55
2023/08/10 04:28:30;;;;;;;9.63;3.67;;;;;;;14.17;100.00;101983.31;5029923;28;20052;-57
2023/08/10 04:30:58;;;;;;;7.20;3.50;;;;;;;14.17;100.00;101991.25;5029910;28;20156;-56
2023/08/10 04:33:26;;;;;;;8.50;3.50;;;;;;;14.17;100.00;101988.63;5031791;28;20099;-60
2023/08/10 04:35:56;;;;;;;8.65;3.40;;;;;;;14.09;100.00;101985.59;5029250;28;20052;-59
2023/08/10 04:38:26;;;;;;;9.73;4.15;;;;;;;14.14;100.00;101982.69;5028226;28;20046;-59
2023/08/10 04:40:54;;;;;;;9.27;4.45;;;;;;;14.13;100.00;101983.63;5029054;28;20045;-59
2023/08/10 04:43:23;;;;;;;8.07;4.00;;;;;;;14.12;100.00;101982.75;5028922;28;20870;-56
2023/08/10 04:45:51;;;;;;;10.65;4.28;;;;;;;14.14;100.00;101986.16;5032079;28;20118;-56
2023/08/10 04:48:20;;;;;;;9.75;4.03;;;;;;;14.17;100.00;101993.06;5031177;28;20128;-57
2023/08/10 04:50:48;;;;;;;7.60;3.65;;;;;;;14.26;100.00;101983.69;5029400;28;20096;-57
2023/08/10 04:53:17;;;;;;;10.15;4.32;;;;;;;14.31;100.00;101984.25;5029404;28;20495;-57
2023/08/10 04:55:45;;;;;;;7.45;3.85;;;;;;;14.26;100.00;101989.00;5028760;28;20400;-59
2023/08/10 04:58:13;;;;;;;9.82;3.75;;;;;;;14.31;100.00;101994.84;5032409;28;20504;-59
2023/08/10 05:00:42;;;;;;;10.10;4.13;;;;;;;14.25;100.00;101990.78;5032362;28;20037;-59
2023/08/10 05:03:10;;;;;;;9.95;4.38;;;;;;;14.24;100.00;101991.72;5032484;28;20634;-60
2023/08/10 05:05:39;;;;;;;8.43;4.40;;;;;;;14.30;100.00;101991.38;5032310;28;20030;-60
2023/08/10 05:08:08;;;;;;;9.88;4.35;;;;;;;14.33;100.00;101988.50;5032200;28;20073;-59
2023/08/10 05:10:38;;;;;;;10.65;4.43;;;;;;;14.39;100.00;101997.03;5027289;28;20053;-59
2023/08/10 05:13:06;;;;;;;9.10;4.55;;;;;;;14.45;100.00;101986.91;5029522;28;20053;-59
2023/08/10 05:15:34;;;;;;;7.43;4.53;;;;;;;14.46;100.00;101987.75;5032095;28;20043;-59
2023/08/10 05:18:03;;;;;;;9.25;4.45;;;;;;;14.51;100.00;101996.25;5032008;28;20053;-59
2023/08/10 05:20:31;;;;;;;10.68;4.70;;;;;;;14.58;100.00;101989.59;5032054;28;20501;-59
2023/08/10 05:22:59;;;;;;;10.02;5.13;;;;;;;14.65;100.00;101990.09;5031848;28;20513;-56
2023/08/10 05:25:27;;;;;;;10.55;4.65;;;;;;;14.70;100.00;101988.84;5031153;28;20049;-56
2023/08/10 05:27:57;;;;;;;10.25;4.88;;;;;;;14.76;100.00;101981.47;5028616;28;20056;-56
2023/08/10 05:30:25;;;;;;;9.30;4.05;;;;;;;14.78;100.00;101982.19;5030656;28;20135;-57
2023/08/10 05:32:53;;;;;;;9.57;4.50;;;;;;;14.83;100.00;101980.09;5031777;28;20081;-57
2023/08/10 05:35:22;;;;;;;10.73;4.53;;;;;;;14.87;100.00;101985.13;5028617;28;20049;-59
2023/08/10 05:37:52;;;;;;;8.65;4.70;;;;;;;14.93;100.00;101986.50;5029182;28;20041;-60
2023/08/10 05:40:21;;;;;;;9.30;4.53;;;;;;;14.94;100.00;101982.88;5027865;28;20030;-59
2023/08/10 05:42:49;;;;;;;9.05;4.32;;;;;;;15.01;100.00;101985.97;5030440;28;20930;-56
2023/08/10 05:45:19;;;;;;;10.02;4.78;;;;;;;15.04;100.00;101989.28;5028596;28;20068;-57
2023/08/10 05:47:48;;;;;;;8.32;4.30;;;;;;;15.08;100.00;101983.78;5027744;28;20382;-57
2023/08/10 05:50:16;;;;;;;8.90;4.40;;;;;;;15.13;100.00;101986.97;5028564;28;20045;-57
2023/08/10 05:52:45;;;;;;;11.30;4.97;;;;;;;15.20;100.00;101980.31;5029519;28;20057;-57
2023/08/10 05:55:14;;;;;;;9.93;4.28;;;;;;;15.26;100.00;101981.72;5031496;28;20053;-59
2023/08/10 05:57:42;;;;;;;8.98;4.40;;;;;;;15.33;100.00;101988.31;5029332;28;20103;-59
2023/08/10 06:00:13;;;;;;;9.73;4.22;;;;;;;15.32;100.00;101986.59;5029189;28;20048;-59
2023/08/10 06:02:45;;;;;;;7.60;4.00;;;;;;;15.34;100.00;101995.31;5031467;28;20062;-59
2023/08/10 06:05:13;;;;;;;8.85;3.85;;;;;;;15.37;100.00;101995.94;5031618;28;20060;-59
2023/08/10 06:07:42;;;;;;;9.20;4.18;;;;;;;15.40;100.00;101999.34;5046942;28;20128;-59
2023/08/10 06:10:10;;;;;;;8.45;3.55;;;;;;;15.36;100.00;101996.88;5031555;28;20504;-59
2023/08/10 06:12:38;;;;;;;9.85;4.07;;;;;;;15.46;100.00;101993.63;5029896;28;20128;-59
2023/08/10 06:15:07;;;;;;;11.20;4.05;;;;;;;15.47;100.00;101996.16;5028519;28;20054;-59
2023/08/10 06:17:35;;;;;;;13.35;4.30;;;;;;;15.45;100.00;102006.03;5028153;28;20054;-59
2023/08/10 06:20:09;;;;;;;11.32;3.83;;;;;;;15.42;100.00;102003.59;5028668;28;20052;-58
2023/08/10 06:22:39;;;;;;;7.80;4.00;;;;;;;15.46;100.00;102005.09;5028937;28;20524;-59
2023/08/10 06:25:09;;;;;;;9.35;4.07;;;;;;;15.52;100.00;102009.97;5027197;28;20056;-60
2023/08/10 06:27:37;;;;;;;8.88;4.45;;;;;;;15.58;100.00;102008.69;5029722;28;20173;-59
2023/08/10 06:30:08;;;;;;;8.07;3.83;;;;;;;15.65;100.00;102006.47;5033052;28;20057;-58
2023/08/10 06:32:37;;;;;;;9.52;4.00;;;;;;;15.76;100.00;101995.13;5032232;28;20072;-60
2023/08/10 06:35:09;;;;;;;10.63;4.18;;;;;;;15.77;100.00;102008.28;5032654;28;20088;-60
2023/08/10 06:37:42;;;;;;;10.18;3.88;;;;;;;15.87;100.00;102011.19;5034006;28;20512;-60
2023/08/10 06:40:11;;;;;;;8.20;3.55;;;;;;;15.99;100.00;102006.81;5034783;28;20132;-60
2023/08/10 06:42:39;;;;;;;10.27;3.97;;;;;;;16.09;100.00;102001.72;5033865;28;20393;-60
2023/08/10 06:45:09;;;;;;;7.53;3.30;;;;;;;16.20;100.00;101999.19;5031568;28;20068;-61
2023/08/10 06:47:37;;;;;;;11.05;3.83;;;;;;;16.32;100.00;102011.56;5033353;28;20519;-61
2023/08/10 06:50:08;;;;;;;6.00;3.22;;;;;;;16.44;100.00;102009.00;5034929;28;20049;-60
2023/08/10 06:52:36;;;;;;;8.18;3.63;;;;;;;16.56;100.00;102008.09;5034699;28;20124;-60
2023/08/10 06:55:06;;;;;;;11.75;3.63;;;;;;;16.65;100.00;102015.41;5034694;28;20056;-60
2023/08/10 06:57:36;;;;;;;10.57;3.70;;;;;;;16.71;100.00;102009.66;5033492;28;20046;-61
2023/08/10 07:00:07;;;;;;;7.82;3.58;;;;;;;16.88;100.00;101999.63;5034477;28;20045;-61
2023/08/10 07:02:38;;;;;;;8.18;3.50;;;;;;;16.96;100.00;102010.56;5031623;28;20049;-61
2023/08/10 07:05:10;;;;;;;8.45;3.35;;;;;;;17.08;100.00;102005.28;5030946;28;20509;-61
2023/08/10 07:07:38;;;;;;;6.80;3.20;;;;;;;17.20;100.00;102005.19;5031060;28;20057;-61
2023/08/10 07:10:09;;;;;;;8.45;3.28;;;;;;;17.44;100.00;102008.78;5030581;28;20993;-61
2023/08/10 07:12:37;;;;;;;9.57;3.00;;;;;;;17.62;100.00;102004.72;5032229;28;20051;-60
2023/08/10 07:15:08;;;;;;;7.50;3.03;;;;;;;17.80;100.00;102002.44;5031490;28;20057;-61
2023/08/10 07:17:36;;;;;;;9.70;3.00;;;;;;;17.93;100.00;102007.69;5033976;28;20523;-60
2023/08/10 07:20:10;;;;;;;7.40;3.03;;;;;;;18.08;100.00;102008.31;5034367;28;20068;-60
2023/08/10 07:22:38;;;;;;;11.00;2.75;;;;;;;18.20;100.00;102012.66;5033046;28;20457;-61
2023/08/10 07:25:07;;;;;;;8.13;2.78;;;;;;;18.39;100.00;102009.38;5032723;28;20053;-61
2023/08/10 07:27:36;;;;;;;5.50;2.00;;;;;;;18.68;100.00;102007.97;5031082;28;20048;-60
2023/08/10 07:30:05;;;;;;;5.65;2.28;;;;;;;18.74;100.00;102008.31;5031199;28;20081;-60
2023/08/10 07:32:33;;;;;;;6.03;2.90;;;;;;;18.70;100.00;102012.22;5033936;28;20042;-63
2023/08/10 07:35:02;;;;;;;7.07;2.03;;;;;;;18.78;100.00;102014.25;5032608;28;20069;-61
2023/08/10 07:37:34;;;;;;;6.50;2.65;;;;;;;18.79;100.00;102009.75;5031316;28;20051;-61
2023/08/10 07:40:02;;;;;;;4.70;2.42;;;;;;;18.97;100.00;102013.63;5029612;28;20053;-60
2023/08/10 07:42:30;;;;;;;6.30;2.22;;;;;;;19.07;100.00;102013.72;5033934;28;20038;-61
2023/08/10 07:44:58;;;;;;;4.50;2.20;;;;;;;19.42;100.00;102009.91;5030885;28;20065;-60
2023/08/10 07:47:26;;;;;;;5.63;2.13;;;;;;;19.25;100.00;102006.84;5030919;28;20069;-61
2023/08/10 07:49:54;;;;;;;6.13;2.15;;;;;;;19.50;100.00;102009.28;5030941;28;20934;-62
2023/08/10 07:52:22;;;;;;;6.28;2.30;;;;;;;19.53;100.00;102001.84;5032600;28;20052;-61
2023/08/10 07:54:52;;;;;;;5.55;2.22;;;;;;;19.79;100.00;102009.44;5033998;28;20046;-60
2023/08/10 07:57:20;;;;;;;5.68;2.40;;;;;;;19.88;100.00;102007.84;5030910;28;20045;-60
2023/08/10 07:59:48;;;;;;;4.75;1.90;;;;;;;20.08;100.00;102009.63;5032111;28;20049;-60
2023/08/10 08:02:15;;;;;;;5.40;1.88;;;;;;;20.24;100.00;102006.41;5032323;28;20053;-60
2023/08/10 08:04:44;;;;;;;7.72;1.90;;;;;;;20.34;100.00;102001.13;5030131;28;20065;-61
2023/08/10 08:07:12;;;;;;;5.55;1.88;;;;;;;20.40;100.00;102003.25;5032538;28;20049;-61
2023/08/10 08:09:43;;;;;;;7.13;2.10;;;;;;;20.80;100.00;102000.69;5031995;28;20132;-60
2023/08/10 08:12:12;;;;;;;8.45;1.85;;;;;;;20.97;100.00;102001.81;5030861;28;20041;-60
2023/08/10 08:14:41;;;;;;;3.83;1.55;;;;;;;21.16;100.00;102006.31;5030499;28;20107;-56
2023/08/10 08:17:12;;;;;;;2.95;1.55;;;;;;;21.33;100.00;101999.41;5032015;28;20144;-57
2023/08/10 08:19:40;;;;;;;5.70;1.27;;;;;;;21.50;100.00;102006.72;5031654;28;20057;-59
2023/08/10 08:22:08;;;;;;;4.63;1.50;;;;;;;21.55;100.00;102015.16;5033096;28;20041;-55
2023/08/10 08:24:36;;;;;;;4.88;1.50;;;;;;;21.96;100.00;102012.22;5028111;28;20115;-55
2023/08/10 08:27:05;;;;;;;4.70;1.63;;;;;;;22.03;100.00;102010.66;5030849;28;20048;-56
2023/08/10 08:29:34;;;;;;;2.72;1.60;;;;;;;21.82;94.73;102018.06;5031938;28;20061;-56
2023/08/10 08:32:03;;;;;;;6.18;1.90;;;;;;;22.11;95.92;102018.81;5030293;28;20053;-60
2023/08/10 08:34:35;;;;;;;3.28;1.30;;;;;;;22.12;94.81;102009.75;5032130;28;20124;-60
2023/08/10 08:37:03;;;;;;;5.05;1.52;;;;;;;22.39;94.06;102010.78;5032858;28;20076;-58
2023/08/10 08:39:32;;;;;;;5.75;1.75;;;;;;;22.49;87.79;102016.09;5033188;28;20393;-55
2023/08/10 08:42:02;;;;;;;2.72;1.23;;;;;;;22.58;92.39;102012.50;5031219;28;20054;-55
2023/08/10 08:44:31;;;;;;;5.70;1.60;;;;;;;22.86;88.38;102006.25;5030010;28;20076;-55
2023/08/10 08:47:01;;;;;;;5.53;1.60;;;;;;;23.06;88.80;102013.13;5029546;28;20523;-56
2023/08/10 08:49:29;;;;;;;6.05;1.40;;;;;;;23.13;79.83;102006.19;5030138;28;20608;-53
2023/08/10 08:51:57;;;;;;;3.10;1.20;;;;;;;23.18;83.38;102007.56;5030891;28;20113;-55
2023/08/10 08:54:26;;;;;;;4.22;1.45;;;;;;;23.29;78.13;102004.66;5032783;28;20513;-55
2023/08/10 08:56:54;;;;;;;3.33;1.30;;;;;;;23.73;80.77;101995.69;5032590;28;20050;-55
2023/08/10 08:59:25;;;;;;;4.25;1.50;;;;;;;23.74;80.30;101995.53;5030119;28;20053;-55
2023/08/10 09:01:56;;;;;;;4.88;1.50;;;;;;;23.84;83.50;101992.72;5029617;28;20041;-60
2023/08/10 09:04:37;;;;;;;5.53;1.48;;;;;;;24.14;78.56;101994.06;5032642;28;20382;-59
2023/08/10 09:07:05;;;;;;;3.72;1.20;;;;;;;24.17;76.62;101995.59;5032307;28;20128;-60
2023/08/10 09:09:33;;;;;;;4.88;1.40;;;;;;;24.39;73.63;101999.56;5028769;28;20127;-60
2023/08/10 09:12:28;;;;;;;3.50;1.05;;;;;;;24.43;71.56;101992.84;5029379;28;20508;-59
2023/08/10 09:15:02;;;;;;;4.30;1.20;;;;;;;24.70;73.10;102000.81;5029154;28;20065;-54
2023/08/10 09:17:31;;;;;;;4.35;1.13;;;;;;;24.90;77.18;101991.44;5029264;28;20132;-59
2023/08/10 09:20:01;;;;;;;3.80;1.30;;;;;;;24.72;72.00;101988.03;5030779;28;20049;-55
2023/08/10 09:22:33;;;;;;;4.40;1.40;;;;;;;24.82;71.24;101991.41;5032361;28;20053;-54
2023/08/10 09:25:04;;;;;;;6.15;1.25;;;;;;;24.93;70.24;101984.88;5032142;28;20069;-55
2023/08/10 09:27:32;;;;;;;4.68;1.60;;;;;;;25.10;71.29;101983.88;5031175;28;20124;-55
2023/08/10 09:30:03;;;;;;;4.88;1.65;;;;;;;25.20;73.46;101982.88;5029223;28;20049;-55
2023/08/10 09:32:31;;;;;;;4.78;1.38;;;;;;;25.45;70.21;101981.81;5028606;28;20127;-54
2023/08/10 09:35:01;;;;;;;4.97;1.58;;;;;;;25.65;68.37;101979.59;5028513;28;20106;-56
2023/08/10 09:37:29;;;;;;;4.03;1.20;;;;;;;25.69;67.82;101974.72;5031538;28;20041;-54
2023/08/10 09:40:04;;;;;;;6.15;1.50;;;;;;;25.56;64.43;101982.50;5030688;28;20676;-56
2023/08/10 09:42:33;;;;;;;3.80;1.38;;;;;;;25.77;66.49;101974.69;5028248;28;20041;-55
2023/08/10 09:45:06;;;;;;;4.45;1.50;;;;;;;26.30;66.59;101983.06;5028430;28;20057;-55
2023/08/10 09:47:35;;;;;;;2.05;1.25;;;;;;;26.38;64.49;101979.50;5028412;28;20076;-55
2023/08/10 09:50:07;;;;;;;5.15;1.70;;;;;;;26.74;65.93;101991.59;5028613;28;20076;-55
2023/08/10 09:52:36;;;;;;;3.05;1.40;;;;;;;26.72;63.30;101982.84;5029500;28;20037;-55
2023/08/10 09:55:06;;;;;;;4.32;1.52;;;;;;;26.60;62.69;101985.06;5031522;28;20076;-55
2023/08/10 09:57:39;;;;;;;5.30;1.38;;;;;;;26.63;68.40;101973.94;5031522;28;20037;-55
2023/08/10 10:00:14;;;;;;;4.85;1.50;;;;;;;26.63;65.27;101979.34;5029047;28;20543;-54
2023/08/10 10:02:42;;;;;;;4.43;1.30;;;;;;;26.80;64.21;101977.38;5027800;28;20459;-55
2023/08/10 10:05:12;;;;;;;3.33;1.50;;;;;;;27.27;64.03;101972.78;5030995;28;20129;-55
2023/08/10 10:07:58;;;;;;;4.20;1.50;;;;;;;27.49;60.12;101971.06;5031031;28;20128;-55
2023/08/10 10:10:26;;;;;;;3.67;1.35;;;;;;;27.68;65.60;101972.38;5028080;28;20057;-55
2023/08/10 10:12:54;;;;;;;4.60;1.75;;;;;;;27.57;64.48;101986.31;5027815;28;20578;-54
2023/08/10 10:15:25;;;;;;;4.18;1.70;;;;;;;27.85;60.89;101993.78;5028072;28;20056;-55
2023/08/10 10:17:53;;;;;;;4.07;1.25;;;;;;;28.01;62.57;101980.09;5028306;28;20050;-53
2023/08/10 10:20:24;;;;;;;6.47;1.60;;;;;;;27.13;59.18;101986.06;5027911;28;20388;-55
2023/08/10 10:22:52;;;;;;;5.63;1.65;;;;;;;27.11;62.87;101974.59;5028177;28;20064;-54
2023/08/10 10:25:20;;;;;;;3.60;1.30;;;;;;;27.56;62.74;101969.28;5026274;28;20056;-55
2023/08/10 10:27:51;;;;;;;3.53;1.50;;;;;;;27.45;62.07;101967.06;5029273;28;20052;-55
2023/08/10 10:30:24;;;;;;;6.03;1.67;;;;;;;27.65;64.53;101973.56;5031532;28;20489;-54
2023/08/10 10:32:53;;;;;;;6.50;1.60;;;;;;;28.08;63.40;101977.47;5031236;28;20045;-54
2023/08/10 10:35:24;;;;;;;4.43;1.55;;;;;;;28.11;60.83;101982.50;5031266;28;20128;-55
2023/08/10 10:37:56;;;;;;;4.65;1.75;;;;;;;27.54;61.07;101981.28;5031244;28;20128;-55
2023/08/10 10:40:25;;;;;;;5.20;1.90;;;;;;;27.87;62.24;101980.91;5031068;28;20052;-55
2023/08/10 10:43:07;;;;;;;3.40;1.70;;;;;;;28.13;56.60;101980.47;5029942;28;20615;-55
2023/08/10 10:45:36;;;;;;;4.72;1.92;;;;;;;27.97;59.02;101982.28;5027582;28;20136;-54
2023/08/10 10:48:06;;;;;;;5.65;1.88;;;;;;;28.11;60.52;101980.63;5030700;28;20107;-54
2023/08/10 10:50:36;;;;;;;3.22;1.70;;;;;;;28.66;64.63;101988.34;5028957;28;20657;-55
2023/08/10 10:53:06;;;;;;;6.13;2.17;;;;;;;28.66;57.31;101993.78;5026884;28;20053;-55
2023/08/10 10:55:42;;;;;;;6.97;1.50;;;;;;;29.07;55.91;101993.09;5025748;28;20049;-55
2023/08/10 10:58:12;;;;;;;4.93;1.60;;;;;;;28.81;57.30;101982.88;5027947;28;20192;-59
2023/08/10 11:00:41;;;;;;;3.80;1.60;;;;;;;28.75;55.75;101983.63;5030635;28;20107;-54
2023/08/10 11:03:11;;;;;;;5.97;1.83;;;;;;;28.62;59.43;101977.03;5030193;28;20038;-54
2023/08/10 11:05:43;;;;;;;4.63;2.08;;;;;;;28.85;58.70;101981.47;5027661;28;20042;-54
2023/08/10 11:08:12;;;;;;;3.47;1.80;;;;;;;28.49;63.39;101980.44;5028047;28;20060;-55
2023/08/10 11:10:43;;;;;;;3.63;1.80;;;;;;;28.44;62.34;101982.91;5026640;28;20048;-55
2023/08/10 11:13:12;;;;;;;3.88;1.70;;;;;;;28.52;59.71;101984.63;5028128;28;20051;-57
2023/08/10 11:15:40;;;;;;;3.83;1.70;;;;;;;28.66;59.67;101985.66;5032072;28;20053;-58
2023/08/10 11:18:12;;;;;;;4.38;1.77;;;;;;;28.47;58.12;101976.25;5033894;28;20041;-58
2023/08/10 11:20:46;;;;;;;3.17;1.48;;;;;;;28.76;56.07;101983.44;5031845;28;20060;-55
2023/08/10 11:23:14;;;;;;;3.78;1.60;;;;;;;29.13;56.53;101977.94;5031256;28;20077;-55
2023/08/10 11:25:49;;;;;;;4.28;1.73;;;;;;;28.90;58.61;101978.16;5033467;28;20049;-54
2023/08/10 11:28:18;;;;;;;5.28;1.38;;;;;;;29.42;57.94;101976.91;5034076;28;20064;-54
2023/08/10 11:30:48;;;;;;;7.65;1.58;;;;;;;29.64;53.81;101977.69;5034465;28;20057;-53